Airfield :
LOGIN :

Register | Disclaimer

   EN    FR    IT 

 










Legend :    VFR   Marginal VFR   IFR   Intensive IFR   Very Intensive IFR
Visi :
Ceiling :
>= 8 km
>= 3000ft
5 to 8 km
1000 to 3000 ft
1500m to 5 km
500 to 1000 ft
800 to 1500m
200 to 500 ft
< 800m
< 200 ft
Symbols :   Thunderstorms  Fog  Heavy snow  Heavy precipitations  Wind > 20 kt
SIGMETs :     Misc.  Thunderstorms  Icing  Turbulence  Mountain Waves  Volcanic Ashes






- Airport Elevation : 84 ft


LFBC - Cazaux

CURRENT METAR :
  • 210530Z AUTO 16008KT 9999 BKN043/// BKN062/// ///TCU 08/06 Q1003

EXPIRED METARs :
  • 210500Z AUTO 17008KT CAVOK 09/06 Q1003
  • 210430Z AUTO 16005KT CAVOK 08/06 Q1003
  • 210400Z AUTO 16007KT 9999 ///TCU 08/07 Q1003
  • 210330Z AUTO 17006KT 9999 +DZ ///TCU 08/06 Q1004
  • 210300Z AUTO 16006KT CAVOK 08/06 Q1004

TAF TAF LFBC
Valid from the 20 at 15:00 until the 21 at 15:00 UTC


201400Z 2015/2115 15007KT CAVOK
TEMPO 2105/2111 SCT006 BKN025TCU
BECMG 2112/2114 21010KT



MET'MAP, your aeronautical weather chart ! - Copyright ORBIFLY December 2007 - Disclaimer

ORBIFLY MET'MAP TEAM :

Programming & Development : Alexandra Zaïnal
Concept & Development : Baudouin d'Aumeries
Co-Development & Prog : Marc-Olivier Méhu
Technical & hardware support : Manuel Goepfert

Contact : metmap@orbifly.com




SOURCES & CREDITS :

   NOAA